createdAt,value
2017-12-26T00:00:04.971Z,85.80
2017-12-26T00:01:04.962Z,85.61
2017-12-26T00:02:05.160Z,85.32
2017-12-26T00:03:04.937Z,84.56
2017-12-26T00:04:04.927Z,84.56
2017-12-26T00:05:06.759Z,84.47
2017-12-26T00:06:04.974Z,84.51
2017-12-26T00:07:06.723Z,84.42
2017-12-26T00:08:04.894Z,83.85
2017-12-26T00:09:04.893Z,83.94
2017-12-26T00:10:04.877Z,82.90
2017-12-26T00:11:04.871Z,83.09
2017-12-26T00:12:04.873Z,82.62
2017-12-26T00:13:04.886Z,82.62
2017-12-26T00:14:04.884Z,82.71
2017-12-26T00:15:04.835Z,83.09
2017-12-26T00:16:04.846Z,83.18
2017-12-26T00:17:04.830Z,82.81
2017-12-26T00:18:06.728Z,82.33
2017-12-26T00:19:04.819Z,82.24
2017-12-26T00:20:04.816Z,83.09
2017-12-26T00:21:04.815Z,82.52
2017-12-26T00:22:04.779Z,82.71
2017-12-26T00:23:06.726Z,81.95
2017-12-26T00:24:04.772Z,82.62
2017-12-26T00:25:04.770Z,82.14
2017-12-26T00:26:04.765Z,82.43
2017-12-26T00:27:04.748Z,82.47
2017-12-26T00:28:04.756Z,81.38
2017-12-26T00:29:04.737Z,81.14
2017-12-26T00:30:04.727Z,81.24
2017-12-26T00:31:04.721Z,81.05
2017-12-26T00:32:04.707Z,80.57
2017-12-26T00:33:04.704Z,80.29
2017-12-26T00:34:04.706Z,81.33
2017-12-26T00:35:04.681Z,80.38
2017-12-26T00:36:04.719Z,80.00
2017-12-26T00:37:06.232Z,79.25
2017-12-26T00:38:04.664Z,79.15
2017-12-26T00:39:04.652Z,79.63
2017-12-26T00:40:04.649Z,78.87
2017-12-26T00:41:04.634Z,78.58
2017-12-26T00:42:04.659Z,79.06
2017-12-26T00:43:04.642Z,78.30
2017-12-26T00:44:04.617Z,79.44
2017-12-26T00:45:04.619Z,80.19
2017-12-26T00:46:04.600Z,78.77
2017-12-26T00:47:04.593Z,78.49
2017-12-26T00:48:04.601Z,78.11
2017-12-26T00:49:04.588Z,78.11
2017-12-26T00:50:04.606Z,77.96
2017-12-26T00:51:04.583Z,78.05
2017-12-26T00:52:04.585Z,78.02
2017-12-26T00:53:04.576Z,77.29
2017-12-26T00:54:04.549Z,77.67
2017-12-26T00:55:04.541Z,78.05
2017-12-26T00:56:04.550Z,78.15
2017-12-26T00:57:04.545Z,77.67
2017-12-26T00:58:04.518Z,77.58
2017-12-26T00:59:06.236Z,78.05
2017-12-26T01:00:04.500Z,77.67
2017-12-26T01:01:04.492Z,78.91
2017-12-26T01:02:04.483Z,78.24
2017-12-26T01:03:04.484Z,78.91
2017-12-26T01:04:06.243Z,81.09
2017-12-26T01:05:04.469Z,80.43
2017-12-26T01:06:04.458Z,78.24
2017-12-26T01:07:04.465Z,77.77
2017-12-26T01:08:06.252Z,76.82
2017-12-26T01:09:04.473Z,77.67
2017-12-26T01:10:05.438Z,78.34
2017-12-26T01:11:04.427Z,77.39
2017-12-26T01:12:04.417Z,77.86
2017-12-26T01:13:04.417Z,76.44
2017-12-26T01:14:04.401Z,75.87
2017-12-26T01:15:04.397Z,75.21
2017-12-26T01:16:04.413Z,75.96
2017-12-26T01:17:04.399Z,75.96
2017-12-26T01:18:04.375Z,76.73
2017-12-26T01:19:04.379Z,76.92
2017-12-26T01:20:04.394Z,76.54
2017-12-26T01:21:04.364Z,76.54
2017-12-26T01:22:04.376Z,75.78
2017-12-26T01:23:04.373Z,75.02
2017-12-26T01:24:04.337Z,75.31
2017-12-26T01:25:04.326Z,75.21
2017-12-26T01:26:04.331Z,75.21
2017-12-26T01:27:04.310Z,75.02
2017-12-26T01:28:04.327Z,75.11
2017-12-26T01:29:06.238Z,76.44
2017-12-26T01:30:04.293Z,75.49
2017-12-26T01:31:04.295Z,74.92
2017-12-26T01:32:06.268Z,74.92
2017-12-26T01:33:06.240Z,75.11
2017-12-26T01:34:04.262Z,75.11
2017-12-26T01:35:04.263Z,74.58
2017-12-26T01:36:04.256Z,74.39
2017-12-26T01:37:04.252Z,74.20
2017-12-26T01:38:04.243Z,74.77
2017-12-26T01:39:04.237Z,75.34
2017-12-26T01:40:05.771Z,73.72
2017-12-26T01:41:04.218Z,75.15
2017-12-26T01:42:04.214Z,73.92
2017-12-26T01:43:04.236Z,74.01
2017-12-26T01:44:04.207Z,74.68
2017-12-26T01:45:04.198Z,73.35
2017-12-26T01:46:04.192Z,72.72
2017-12-26T01:47:04.193Z,72.25
2017-12-26T01:48:04.194Z,71.96
2017-12-26T01:49:04.184Z,72.91
2017-12-26T01:50:04.167Z,71.96
2017-12-26T01:51:04.155Z,72.72
2017-12-26T01:52:04.153Z,72.63
2017-12-26T01:53:04.148Z,72.53
2017-12-26T01:54:04.138Z,73.10
2017-12-26T01:55:04.150Z,74.05
2017-12-26T01:56:04.120Z,73.19
2017-12-26T01:57:04.125Z,71.96
2017-12-26T01:58:04.118Z,72.44
2017-12-26T01:59:04.110Z,73.86
2017-12-26T02:00:04.101Z,72.91
2017-12-26T02:01:04.099Z,73.48
2017-12-26T02:02:04.096Z,72.44
2017-12-26T02:03:04.101Z,72.53
2017-12-26T02:04:04.090Z,71.86
2017-12-26T02:05:05.778Z,72.53
2017-12-26T02:06:04.096Z,71.86
2017-12-26T02:07:04.062Z,72.44
2017-12-26T02:08:04.060Z,72.91
2017-12-26T02:09:04.048Z,72.44
2017-12-26T02:10:04.041Z,72.63
2017-12-26T02:11:04.036Z,76.80
2017-12-26T02:12:04.032Z,74.33
2017-12-26T02:13:05.750Z,72.81
2017-12-26T02:14:04.021Z,73.48
2017-12-26T02:15:04.035Z,73.10
2017-12-26T02:16:04.008Z,72.63
2017-12-26T02:17:04.005Z,72.81
2017-12-26T02:18:04.008Z,72.81
2017-12-26T02:19:03.990Z,72.91
2017-12-26T02:20:03.998Z,74.24
2017-12-26T02:21:04.013Z,73.86
2017-12-26T02:22:05.755Z,72.72
2017-12-26T02:23:03.961Z,72.06
2017-12-26T02:24:03.960Z,72.63
2017-12-26T02:25:03.953Z,72.15
2017-12-26T02:26:03.954Z,73.38
2017-12-26T02:27:03.946Z,73.38
2017-12-26T02:28:03.953Z,75.28
2017-12-26T02:29:03.931Z,73.29
2017-12-26T02:30:03.927Z,72.81
2017-12-26T02:31:03.967Z,73.38
2017-12-26T02:32:03.917Z,73.19
2017-12-26T02:33:03.938Z,73.86
2017-12-26T02:34:03.899Z,73.86
2017-12-26T02:35:03.897Z,74.81
2017-12-26T02:36:03.890Z,74.71
2017-12-26T02:37:05.755Z,74.90
2017-12-26T02:38:03.882Z,75.23
2017-12-26T02:39:05.765Z,74.90
2017-12-26T02:40:03.868Z,76.14
2017-12-26T02:41:03.888Z,74.81
2017-12-26T02:42:03.857Z,75.19
2017-12-26T02:43:03.847Z,73.90
2017-12-26T02:44:06.761Z,74.52
2017-12-26T02:45:03.838Z,74.85
2017-12-26T02:46:03.829Z,74.24
2017-12-26T02:47:03.826Z,74.85
2017-12-26T02:48:03.825Z,76.37
2017-12-26T02:49:03.826Z,76.18
2017-12-26T02:50:05.763Z,74.81
2017-12-26T02:51:03.803Z,75.95
2017-12-26T02:52:03.834Z,74.81
2017-12-26T02:53:03.796Z,74.43
2017-12-26T02:54:03.790Z,73.86
2017-12-26T02:55:03.797Z,77.12
2017-12-26T02:56:03.777Z,76.56
2017-12-26T02:57:03.794Z,75.04
2017-12-26T02:58:03.764Z,74.08
2017-12-26T02:59:03.757Z,75.70
2017-12-26T03:00:03.754Z,76.75
2017-12-26T03:01:03.750Z,77.03
2017-12-26T03:02:03.746Z,75.23
2017-12-26T03:03:03.752Z,74.08
2017-12-26T03:04:03.759Z,74.66
2017-12-26T03:05:03.723Z,74.94
2017-12-26T03:06:03.721Z,75.04
2017-12-26T03:07:03.709Z,75.42
2017-12-26T03:08:03.721Z,74.56
2017-12-26T03:09:03.709Z,74.56
2017-12-26T03:10:06.271Z,74.18
2017-12-26T03:11:03.695Z,75.89
2017-12-26T03:12:03.689Z,75.79
2017-12-26T03:13:03.679Z,76.84
2017-12-26T03:14:03.718Z,76.93
2017-12-26T03:15:03.675Z,75.67
2017-12-26T03:16:03.664Z,75.32
2017-12-26T03:17:05.264Z,75.51
2017-12-26T03:18:03.656Z,75.42
2017-12-26T03:19:03.674Z,76.18
2017-12-26T03:20:06.296Z,76.27
2017-12-26T03:21:03.635Z,76.75
2017-12-26T03:22:05.265Z,76.27
2017-12-26T03:23:03.631Z,75.23
2017-12-26T03:24:03.626Z,75.04
2017-12-26T03:25:03.616Z,74.94
2017-12-26T03:26:03.650Z,76.18
2017-12-26T03:27:03.598Z,76.65
2017-12-26T03:28:03.601Z,75.60
2017-12-26T03:29:03.592Z,75.42
2017-12-26T03:30:03.618Z,74.27
2017-12-26T03:31:03.582Z,74.75
2017-12-26T03:32:03.579Z,75.51
2017-12-26T03:33:03.569Z,75.13
2017-12-26T03:34:03.569Z,75.89
2017-12-26T03:35:03.557Z,75.60
2017-12-26T03:36:03.559Z,75.32
2017-12-26T03:37:03.548Z,75.51
2017-12-26T03:38:03.545Z,75.04
2017-12-26T03:39:03.538Z,75.00
2017-12-26T03:40:03.536Z,75.57
2017-12-26T03:41:03.531Z,76.61
2017-12-26T03:42:03.527Z,76.42
2017-12-26T03:43:05.269Z,75.95
2017-12-26T03:44:03.528Z,75.95
2017-12-26T03:45:03.514Z,77.28
2017-12-26T03:46:03.504Z,76.99
2017-12-26T03:47:03.490Z,76.32
2017-12-26T03:48:03.489Z,77.98
2017-12-26T03:49:03.501Z,77.41
2017-12-26T03:50:03.486Z,77.89
2017-12-26T03:51:03.487Z,77.22
2017-12-26T03:52:03.467Z,76.84
2017-12-26T03:53:03.475Z,78.08
2017-12-26T03:54:03.456Z,78.27
2017-12-26T03:55:03.454Z,77.51
2017-12-26T03:56:06.271Z,77.41
2017-12-26T03:57:05.292Z,77.12
2017-12-26T03:58:03.441Z,78.17
2017-12-26T03:59:03.457Z,77.79
2017-12-26T04:00:03.436Z,77.79
2017-12-26T04:01:03.419Z,77.94
2017-12-26T04:02:03.414Z,77.28
2017-12-26T04:03:05.272Z,77.56
2017-12-26T04:04:03.434Z,77.94
2017-12-26T04:05:03.390Z,77.75
2017-12-26T04:06:05.270Z,77.89
2017-12-26T04:07:05.334Z,78.08
2017-12-26T04:08:03.382Z,78.36
2017-12-26T04:09:03.381Z,78.93
2017-12-26T04:10:03.368Z,77.31
2017-12-26T04:11:03.372Z,77.60
2017-12-26T04:12:03.356Z,78.27
2017-12-26T04:13:03.379Z,78.08
2017-12-26T04:14:03.355Z,77.70
2017-12-26T04:15:03.367Z,76.75
2017-12-26T04:16:03.360Z,76.65
2017-12-26T04:17:03.340Z,77.79
2017-12-26T04:18:03.333Z,78.17
2017-12-26T04:19:03.325Z,77.79
2017-12-26T04:20:03.321Z,76.93
2017-12-26T04:21:03.320Z,76.75
2017-12-26T04:22:03.330Z,76.18
2017-12-26T04:23:03.301Z,75.99
2017-12-26T04:24:03.294Z,76.65
2017-12-26T04:25:03.292Z,78.36
2017-12-26T04:26:04.783Z,80.64
2017-12-26T04:27:03.277Z,77.98
2017-12-26T04:28:03.275Z,77.51
2017-12-26T04:29:03.278Z,77.89
2017-12-26T04:30:05.774Z,78.17
2017-12-26T04:31:03.260Z,77.60
2017-12-26T04:32:03.255Z,79.03
2017-12-26T04:33:03.243Z,77.79
2017-12-26T04:34:03.241Z,76.75
2017-12-26T04:35:03.232Z,77.22
2017-12-26T04:36:03.247Z,76.56
2017-12-26T04:37:03.222Z,77.51
2017-12-26T04:38:03.224Z,76.37
2017-12-26T04:39:03.289Z,76.56
2017-12-26T04:40:03.225Z,76.46
2017-12-26T04:41:03.200Z,76.27
2017-12-26T04:42:03.205Z,76.46
2017-12-26T04:43:03.198Z,76.84
2017-12-26T04:44:03.202Z,76.56
2017-12-26T04:45:03.180Z,76.75
2017-12-26T04:46:03.183Z,77.79
2017-12-26T04:47:03.165Z,77.79
2017-12-26T04:48:03.158Z,76.37
2017-12-26T04:49:03.166Z,76.75
2017-12-26T04:50:03.159Z,77.12
2017-12-26T04:51:03.149Z,77.89
2017-12-26T04:52:03.170Z,78.93
2017-12-26T04:53:03.139Z,78.83
2017-12-26T04:54:03.137Z,77.60
2017-12-26T04:55:03.127Z,77.51
2017-12-26T04:56:03.122Z,77.03
2017-12-26T04:57:03.126Z,76.37
2017-12-26T04:58:03.110Z,77.89
2017-12-26T04:59:03.102Z,78.27
2017-12-26T05:00:03.098Z,78.17
2017-12-26T05:01:03.091Z,78.55
2017-12-26T05:02:03.087Z,78.32
2017-12-26T05:03:03.080Z,79.12
2017-12-26T05:04:03.096Z,77.98
2017-12-26T05:05:03.080Z,77.98
2017-12-26T05:06:03.078Z,78.17
2017-12-26T05:07:03.066Z,78.36
2017-12-26T05:08:03.063Z,78.93
2017-12-26T05:09:03.050Z,78.08
2017-12-26T05:10:03.056Z,79.97
2017-12-26T05:11:03.079Z,81.40
2017-12-26T05:12:03.038Z,78.83
2017-12-26T05:13:03.033Z,78.93
2017-12-26T05:14:03.022Z,76.84
2017-12-26T05:15:03.014Z,79.50
2017-12-26T05:16:03.008Z,78.45
2017-12-26T05:17:03.008Z,80.16
2017-12-26T05:18:03.000Z,78.74
2017-12-26T05:19:02.995Z,78.64
2017-12-26T05:20:02.989Z,78.93
2017-12-26T05:21:02.981Z,77.79
2017-12-26T05:22:05.790Z,78.17
2017-12-26T05:23:02.996Z,78.55
2017-12-26T05:24:02.969Z,78.45
2017-12-26T05:25:03.007Z,77.31
2017-12-26T05:26:02.965Z,77.70
2017-12-26T05:27:02.948Z,76.84
2017-12-26T05:28:02.946Z,77.31
2017-12-26T05:29:02.957Z,77.70
2017-12-26T05:30:02.939Z,78.17
2017-12-26T05:31:02.935Z,78.08
2017-12-26T05:32:02.948Z,76.93
2017-12-26T05:33:02.920Z,77.41
2017-12-26T05:34:04.787Z,78.17
2017-12-26T05:35:02.909Z,76.84
2017-12-26T05:36:04.790Z,76.56
2017-12-26T05:37:02.899Z,76.75
2017-12-26T05:38:02.895Z,76.75
2017-12-26T05:39:02.893Z,76.56
2017-12-26T05:40:02.884Z,77.03
2017-12-26T05:41:02.884Z,76.65
2017-12-26T05:42:02.899Z,76.84
2017-12-26T05:43:02.884Z,76.56
2017-12-26T05:44:02.861Z,76.18
2017-12-26T05:45:02.857Z,77.79
2017-12-26T05:46:02.853Z,78.36
2017-12-26T05:47:02.852Z,78.36
2017-12-26T05:48:04.796Z,79.12
2017-12-26T05:49:02.856Z,78.64
2017-12-26T05:50:02.827Z,79.31
2017-12-26T05:51:02.845Z,79.12
2017-12-26T05:52:02.820Z,78.74
2017-12-26T05:53:02.823Z,78.74
2017-12-26T05:54:02.838Z,77.12
2017-12-26T05:55:02.810Z,76.37
2017-12-26T05:56:02.823Z,77.98
2017-12-26T05:57:02.794Z,78.45
2017-12-26T05:58:02.794Z,77.79
2017-12-26T05:59:05.290Z,78.27
2017-12-26T06:00:02.786Z,78.55
2017-12-26T06:01:02.772Z,78.36
2017-12-26T06:02:02.766Z,79.79
2017-12-26T06:03:02.766Z,79.50
2017-12-26T06:04:02.780Z,79.03
2017-12-26T06:05:02.780Z,79.22
2017-12-26T06:06:04.310Z,78.93
2017-12-26T06:07:02.749Z,77.51
2017-12-26T06:08:02.759Z,77.89
2017-12-26T06:09:02.731Z,78.36
2017-12-26T06:10:02.763Z,78.08
2017-12-26T06:11:02.717Z,78.17
2017-12-26T06:12:02.723Z,78.27
2017-12-26T06:13:02.720Z,79.22
2017-12-26T06:14:04.292Z,78.36
2017-12-26T06:15:02.714Z,79.12
2017-12-26T06:16:02.696Z,80.26
2017-12-26T06:17:02.701Z,79.60
2017-12-26T06:18:02.689Z,78.08
2017-12-26T06:19:02.702Z,78.17
2017-12-26T06:20:02.677Z,77.89
2017-12-26T06:21:02.675Z,78.36
2017-12-26T06:22:02.669Z,78.17
2017-12-26T06:23:04.317Z,78.93
2017-12-26T06:24:04.313Z,78.36
2017-12-26T06:25:02.682Z,78.17
2017-12-26T06:26:02.651Z,78.55
2017-12-26T06:27:02.675Z,78.36
2017-12-26T06:28:02.629Z,78.55
2017-12-26T06:29:02.645Z,78.83
2017-12-26T06:30:02.620Z,78.74
2017-12-26T06:31:02.628Z,78.93
2017-12-26T06:32:02.625Z,78.45
2017-12-26T06:33:02.602Z,78.89
2017-12-26T06:34:02.596Z,79.03
2017-12-26T06:35:02.614Z,79.03
2017-12-26T06:36:02.609Z,80.16
2017-12-26T06:37:02.582Z,79.50
2017-12-26T06:38:02.627Z,79.31
2017-12-26T06:39:02.571Z,79.60
2017-12-26T06:40:02.573Z,80.26
2017-12-26T06:41:02.556Z,80.45
2017-12-26T06:42:04.331Z,79.79
2017-12-26T06:43:04.302Z,79.88
2017-12-26T06:44:02.544Z,78.93
2017-12-26T06:45:02.569Z,79.60
2017-12-26T06:46:02.532Z,79.79
2017-12-26T06:47:04.326Z,81.12
2017-12-26T06:48:02.519Z,79.22
2017-12-26T06:49:02.535Z,79.03
2017-12-26T06:50:02.513Z,79.03
2017-12-26T06:51:02.500Z,79.69
2017-12-26T06:52:02.503Z,79.60
2017-12-26T06:53:02.495Z,79.03
2017-12-26T06:54:02.504Z,79.60
2017-12-26T06:55:05.302Z,79.31
2017-12-26T06:56:04.303Z,79.12
2017-12-26T06:57:02.470Z,78.36
2017-12-26T06:58:02.496Z,78.36
2017-12-26T06:59:02.466Z,78.93
2017-12-26T07:00:04.343Z,79.03
2017-12-26T07:01:02.451Z,79.12
2017-12-26T07:02:02.484Z,78.93
2017-12-26T07:03:04.324Z,78.36
2017-12-26T07:04:02.447Z,78.83
2017-12-26T07:05:02.432Z,78.55
2017-12-26T07:06:02.435Z,78.93
2017-12-26T07:07:02.419Z,79.03
2017-12-26T07:08:02.412Z,81.40
2017-12-26T07:09:02.445Z,80.45
2017-12-26T07:10:04.324Z,80.26
2017-12-26T07:11:05.342Z,80.07
2017-12-26T07:12:02.426Z,80.45
2017-12-26T07:13:02.411Z,79.69
2017-12-26T07:14:02.413Z,79.31
2017-12-26T07:15:04.355Z,79.79
2017-12-26T07:16:02.376Z,79.41
2017-12-26T07:17:04.329Z,80.93
2017-12-26T07:18:02.381Z,79.88
2017-12-26T07:19:02.364Z,79.03
2017-12-26T07:20:02.351Z,78.27
2017-12-26T07:21:02.370Z,79.03
2017-12-26T07:22:02.376Z,79.22
2017-12-26T07:23:02.356Z,80.26
2017-12-26T07:24:02.347Z,80.35
2017-12-26T07:25:04.315Z,79.97
2017-12-26T07:26:02.328Z,79.31
2017-12-26T07:27:02.329Z,80.45
2017-12-26T07:28:02.326Z,80.07
2017-12-26T07:29:02.318Z,79.12
2017-12-26T07:30:02.309Z,80.64
2017-12-26T07:31:02.301Z,79.03
2017-12-26T07:32:02.295Z,78.74
2017-12-26T07:33:02.292Z,78.97
2017-12-26T07:34:02.282Z,81.92
2017-12-26T07:35:02.277Z,82.58
2017-12-26T07:36:02.345Z,80.30
2017-12-26T07:37:02.263Z,78.21
2017-12-26T07:38:02.262Z,79.16
2017-12-26T07:39:02.273Z,78.97
2017-12-26T07:40:02.256Z,76.78
2017-12-26T07:41:03.822Z,78.30
2017-12-26T07:42:02.247Z,78.40
2017-12-26T07:43:02.236Z,77.64
2017-12-26T07:44:02.234Z,77.73
2017-12-26T07:45:02.228Z,77.55
2017-12-26T07:46:02.224Z,77.83
2017-12-26T07:47:03.820Z,78.88
2017-12-26T07:48:02.216Z,77.07
2017-12-26T07:49:02.208Z,76.69
2017-12-26T07:50:02.208Z,77.73
2017-12-26T07:51:02.225Z,78.69
2017-12-26T07:52:02.245Z,76.69
2017-12-26T07:53:03.819Z,79.01
2017-12-26T07:54:03.838Z,77.87
2017-12-26T07:55:02.178Z,77.68
2017-12-26T07:56:02.198Z,77.39
2017-12-26T07:57:04.842Z,78.44
2017-12-26T07:58:02.180Z,77.58
2017-12-26T07:59:02.174Z,77.01
2017-12-26T08:00:02.161Z,78.53
2017-12-26T08:01:02.160Z,76.44
2017-12-26T08:02:02.150Z,76.25
2017-12-26T08:03:02.138Z,76.82
2017-12-26T08:04:02.139Z,76.54
2017-12-26T08:05:02.137Z,76.82
2017-12-26T08:06:02.141Z,77.77
2017-12-26T08:07:02.132Z,78.53
2017-12-26T08:08:03.825Z,77.20
2017-12-26T08:09:02.122Z,77.58
2017-12-26T08:10:02.114Z,78.34
2017-12-26T08:11:02.113Z,76.73
2017-12-26T08:12:02.112Z,77.01
2017-12-26T08:13:02.117Z,77.49
2017-12-26T08:14:02.096Z,77.87
2017-12-26T08:15:02.117Z,76.63
2017-12-26T08:16:02.095Z,76.73
2017-12-26T08:17:02.085Z,77.58
2017-12-26T08:18:02.084Z,78.53
2017-12-26T08:19:02.097Z,79.49
2017-12-26T08:20:02.091Z,76.92
2017-12-26T08:21:02.085Z,76.73
2017-12-26T08:22:02.068Z,77.30
2017-12-26T08:23:02.059Z,76.92
2017-12-26T08:24:02.051Z,76.82
2017-12-26T08:25:02.047Z,78.25
2017-12-26T08:26:02.057Z,78.25
2017-12-26T08:27:03.823Z,76.63
2017-12-26T08:28:02.037Z,76.48
2017-12-26T08:29:02.034Z,76.82
2017-12-26T08:30:02.036Z,77.87
2017-12-26T08:31:02.021Z,76.35
2017-12-26T08:32:02.022Z,76.16
2017-12-26T08:33:02.019Z,76.82
2017-12-26T08:34:02.014Z,76.35
2017-12-26T08:35:02.011Z,76.73
2017-12-26T08:36:02.006Z,76.35
2017-12-26T08:37:03.833Z,77.58
2017-12-26T08:38:01.997Z,76.57
2017-12-26T08:39:01.986Z,76.67
2017-12-26T08:40:02.000Z,76.82
2017-12-26T08:41:01.985Z,76.96
2017-12-26T08:42:01.986Z,77.24
2017-12-26T08:43:01.986Z,76.96
2017-12-26T08:44:01.973Z,78.38
2017-12-26T08:45:02.000Z,77.53
2017-12-26T08:46:01.962Z,76.67
2017-12-26T08:47:03.830Z,77.05
2017-12-26T08:48:01.962Z,76.86
2017-12-26T08:49:01.952Z,77.15
2017-12-26T08:50:01.948Z,76.86
2017-12-26T08:51:01.944Z,77.34
2017-12-26T08:52:01.942Z,79.05
2017-12-26T08:53:01.937Z,77.62
2017-12-26T08:54:01.943Z,77.91
2017-12-26T08:55:01.930Z,77.43
2017-12-26T08:56:01.936Z,77.62
2017-12-26T08:57:03.891Z,76.96
2017-12-26T08:58:01.915Z,76.76
2017-12-26T08:59:01.957Z,76.76
2017-12-26T09:00:01.921Z,78.67
2017-12-26T09:01:01.915Z,78.00
2017-12-26T09:02:01.907Z,78.48
2017-12-26T09:03:01.905Z,78.10
2017-12-26T09:04:01.910Z,78.29
2017-12-26T09:05:01.903Z,78.96
2017-12-26T09:06:01.905Z,77.24
2017-12-26T09:07:01.909Z,76.86
2017-12-26T09:08:01.893Z,77.81
2017-12-26T09:09:01.885Z,77.72
2017-12-26T09:10:03.836Z,77.43
2017-12-26T09:11:01.874Z,76.96
2017-12-26T09:12:01.874Z,78.86
2017-12-26T09:13:03.852Z,77.43
2017-12-26T09:14:01.901Z,77.62
2017-12-26T09:15:01.861Z,77.15
2017-12-26T09:16:01.860Z,76.76
2017-12-26T09:17:01.854Z,75.34
2017-12-26T09:18:01.856Z,76.67
2017-12-26T09:19:01.876Z,78.19
2017-12-26T09:20:01.845Z,76.14
2017-12-26T09:21:01.843Z,77.56
2017-12-26T09:22:01.843Z,78.52
2017-12-26T09:23:03.333Z,77.85
2017-12-26T09:24:01.840Z,76.42
2017-12-26T09:25:01.826Z,76.81
2017-12-26T09:26:03.340Z,76.14
2017-12-26T09:27:01.849Z,76.52
2017-12-26T09:28:01.821Z,76.52
2017-12-26T09:29:01.818Z,76.71
2017-12-26T09:30:01.814Z,77.85
2017-12-26T09:31:03.340Z,75.95
2017-12-26T09:32:01.817Z,75.57
2017-12-26T09:33:01.822Z,78.61
2017-12-26T09:34:01.798Z,78.14
2017-12-26T09:35:01.798Z,76.61
2017-12-26T09:36:01.805Z,76.81
2017-12-26T09:37:01.792Z,76.61
2017-12-26T09:38:01.791Z,76.90
2017-12-26T09:39:01.786Z,77.85
2017-12-26T09:40:01.782Z,77.00
2017-12-26T09:41:04.338Z,77.19
2017-12-26T09:42:01.779Z,77.85
2017-12-26T09:43:01.772Z,78.80
2017-12-26T09:44:01.770Z,77.66
2017-12-26T09:45:01.773Z,77.85
2017-12-26T09:46:01.761Z,78.42
2017-12-26T09:47:01.760Z,77.19
2017-12-26T09:48:03.337Z,76.81
2017-12-26T09:49:01.770Z,76.42
2017-12-26T09:50:01.781Z,76.90
2017-12-26T09:51:03.343Z,76.90
2017-12-26T09:52:01.747Z,77.37
2017-12-26T09:53:01.740Z,78.04
2017-12-26T09:54:02.762Z,77.09
2017-12-26T09:55:01.773Z,77.76
2017-12-26T09:56:01.768Z,77.95
2017-12-26T09:57:01.737Z,77.85
2017-12-26T09:58:01.754Z,78.61
2017-12-26T09:59:01.738Z,77.85
2017-12-26T10:00:05.342Z,77.95
2017-12-26T10:01:01.716Z,76.90
2017-12-26T10:02:01.713Z,77.95
2017-12-26T10:03:01.712Z,78.52
2017-12-26T10:04:02.304Z,78.56
2017-12-26T10:05:01.710Z,77.42
2017-12-26T10:06:01.706Z,77.03
2017-12-26T10:07:01.715Z,76.84
2017-12-26T10:08:01.714Z,77.80
2017-12-26T10:09:03.481Z,78.17
2017-12-26T10:10:01.695Z,77.51
2017-12-26T10:11:01.700Z,76.56
2017-12-26T10:12:01.729Z,76.94
2017-12-26T10:13:03.367Z,76.56
2017-12-26T10:14:03.356Z,76.94
2017-12-26T10:15:01.675Z,75.70
2017-12-26T10:16:03.352Z,76.08
2017-12-26T10:17:01.672Z,75.51
2017-12-26T10:18:01.681Z,76.08
2017-12-26T10:19:01.670Z,76.12
2017-12-26T10:20:01.671Z,74.46
2017-12-26T10:21:01.667Z,73.83
2017-12-26T10:22:01.665Z,75.07
2017-12-26T10:23:01.668Z,76.12
2017-12-26T10:24:01.663Z,75.07
2017-12-26T10:25:01.655Z,74.31
2017-12-26T10:26:01.670Z,74.79
2017-12-26T10:27:01.659Z,73.93
2017-12-26T10:28:01.680Z,74.40
2017-12-26T10:29:01.641Z,73.93
2017-12-26T10:30:04.376Z,73.26
2017-12-26T10:31:01.635Z,73.07
2017-12-26T10:32:03.349Z,74.69
2017-12-26T10:33:03.360Z,73.74
2017-12-26T10:34:01.636Z,73.26
2017-12-26T10:35:01.630Z,75.55
2017-12-26T10:36:01.621Z,75.16
2017-12-26T10:37:01.625Z,72.31
2017-12-26T10:38:01.630Z,73.55
2017-12-26T10:39:01.618Z,73.07
2017-12-26T10:40:01.624Z,74.40
2017-12-26T10:41:01.621Z,73.26
2017-12-26T10:42:02.190Z,73.55
2017-12-26T10:43:01.638Z,74.02
2017-12-26T10:44:03.366Z,72.97
2017-12-26T10:45:01.622Z,75.36
2017-12-26T10:46:01.620Z,74.50
2017-12-26T10:47:01.644Z,73.55
2017-12-26T10:48:02.167Z,75.07
2017-12-26T10:49:01.598Z,73.26
2017-12-26T10:50:01.590Z,72.69
2017-12-26T10:51:01.826Z,73.65
2017-12-26T10:52:01.595Z,73.65
2017-12-26T10:53:01.590Z,72.12
2017-12-26T10:54:01.690Z,72.60
2017-12-26T10:55:01.585Z,72.41
2017-12-26T10:56:01.578Z,73.26
2017-12-26T10:57:05.376Z,72.21
2017-12-26T10:58:03.358Z,71.36
2017-12-26T10:59:01.581Z,71.68
2017-12-26T11:00:01.573Z,70.97
2017-12-26T11:01:01.577Z,71.58
2017-12-26T11:02:01.569Z,70.06
2017-12-26T11:03:04.389Z,70.69
2017-12-26T11:04:01.586Z,71.58
2017-12-26T11:05:01.560Z,72.53
2017-12-26T11:06:04.386Z,72.31
2017-12-26T11:07:03.369Z,72.44
2017-12-26T11:08:01.574Z,72.44
2017-12-26T11:09:01.588Z,72.72
2017-12-26T11:10:03.381Z,72.06
2017-12-26T11:11:01.560Z,70.25
2017-12-26T11:12:01.585Z,71.30
2017-12-26T11:13:01.555Z,71.68
2017-12-26T11:14:01.941Z,71.17
2017-12-26T11:15:01.956Z,70.06
2017-12-26T11:16:01.541Z,70.21
2017-12-26T11:17:01.542Z,70.72
2017-12-26T11:18:01.537Z,72.63
2017-12-26T11:19:01.538Z,72.25
2017-12-26T11:20:04.363Z,71.58
2017-12-26T11:21:01.791Z,70.02
2017-12-26T11:22:01.529Z,70.06
2017-12-26T11:23:01.532Z,69.64
2017-12-26T11:24:01.525Z,69.87
2017-12-26T11:25:04.374Z,70.63
2017-12-26T11:26:03.068Z,70.72
2017-12-26T11:27:01.531Z,70.15
2017-12-26T11:28:03.440Z,70.15
2017-12-26T11:29:01.608Z,69.96
2017-12-26T11:30:05.415Z,71.20
2017-12-26T11:31:01.524Z,71.01
2017-12-26T11:32:01.510Z,70.06
2017-12-26T11:33:01.521Z,70.06
2017-12-26T11:34:01.503Z,70.15
2017-12-26T11:35:01.780Z,71.39
2017-12-26T11:36:01.530Z,71.30
2017-12-26T11:37:01.498Z,69.10
2017-12-26T11:38:04.394Z,69.29
2017-12-26T11:39:01.493Z,69.39
2017-12-26T11:40:01.536Z,68.91
2017-12-26T11:41:01.511Z,68.44
2017-12-26T11:42:01.498Z,67.86
2017-12-26T11:43:01.489Z,67.39
2017-12-26T11:44:01.506Z,67.48
2017-12-26T11:45:01.502Z,68.15
2017-12-26T11:46:01.488Z,67.77
2017-12-26T11:47:01.485Z,66.91
2017-12-26T11:48:01.487Z,68.34
2017-12-26T11:49:01.998Z,67.68
2017-12-26T11:50:01.474Z,67.20
2017-12-26T11:51:03.381Z,67.68
2017-12-26T11:52:01.480Z,66.72
2017-12-26T11:53:01.477Z,69.96
2017-12-26T11:54:01.470Z,68.24
2017-12-26T11:55:03.369Z,67.68
2017-12-26T11:56:01.475Z,67.39
2017-12-26T11:57:01.467Z,67.39
2017-12-26T11:58:01.493Z,68.15
2017-12-26T11:59:01.459Z,67.39
2017-12-26T12:00:01.478Z,68.24
2017-12-26T12:01:01.459Z,67.29
2017-12-26T12:02:01.458Z,66.15
2017-12-26T12:03:01.556Z,69.58
2017-12-26T12:04:01.457Z,69.10
2017-12-26T12:05:01.460Z,67.48
2017-12-26T12:06:01.479Z,66.85
2017-12-26T12:07:01.445Z,67.68
2017-12-26T12:08:01.610Z,66.47
2017-12-26T12:09:01.442Z,65.52
2017-12-26T12:10:01.447Z,65.13
2017-12-26T12:11:01.460Z,65.04
2017-12-26T12:12:03.383Z,65.23
2017-12-26T12:13:01.440Z,63.89
2017-12-26T12:14:01.437Z,63.80
2017-12-26T12:15:01.431Z,65.61
2017-12-26T12:16:01.436Z,64.09
2017-12-26T12:17:02.431Z,64.09
2017-12-26T12:18:01.427Z,64.09
2017-12-26T12:19:01.430Z,63.32
2017-12-26T12:20:03.375Z,64.65
2017-12-26T12:21:02.646Z,63.80
2017-12-26T12:22:01.425Z,63.04
2017-12-26T12:23:01.438Z,64.09
2017-12-26T12:24:01.816Z,63.51
2017-12-26T12:25:01.416Z,63.13
2017-12-26T12:26:02.556Z,63.89
2017-12-26T12:27:01.535Z,64.47
2017-12-26T12:28:01.415Z,63.04
2017-12-26T12:29:01.419Z,65.13
2017-12-26T12:30:01.613Z,64.47
2017-12-26T12:31:01.589Z,65.00
2017-12-26T12:32:01.419Z,64.47
2017-12-26T12:33:01.415Z,64.75
2017-12-26T12:34:01.427Z,63.76
2017-12-26T12:35:03.384Z,67.61
2017-12-26T12:36:01.403Z,65.00
2017-12-26T12:37:01.429Z,67.48
2017-12-26T12:38:01.401Z,65.10
2017-12-26T12:39:01.408Z,63.76
2017-12-26T12:40:01.396Z,64.34
2017-12-26T12:41:01.419Z,64.53
2017-12-26T12:42:01.400Z,64.05
2017-12-26T12:43:01.391Z,64.62
2017-12-26T12:44:01.395Z,63.67
2017-12-26T12:45:01.423Z,64.15
2017-12-26T12:46:01.384Z,64.18
2017-12-26T12:47:01.455Z,63.89
2017-12-26T12:48:01.383Z,63.76
2017-12-26T12:49:04.916Z,65.96
2017-12-26T12:50:01.393Z,63.48
2017-12-26T12:51:01.413Z,67.61
2017-12-26T12:52:01.373Z,66.05